• Join FlightAware (Why Join?)
  • Login
  • US Flag 
11:08PM EDT


 

Airport Tracker/Info


-or-


 

Live Flight TrackerFlight Track Log ✈ N32LA ✈ 06-May-2014 ✈ KJKA - KGAD

Flight Track Log - Related Links

Times and Time Zones

All times are in EDT time to prevent confusion due to time zone crossing. See the N32LA flight status page for this flight to view local times or setup timezone preferences in your user account.

Time Position Orientation Groundspeed Altitude Reporting Facility
EDT Latitude Longitude Course Direction KTS MPH feet Rate Location/Type
07:27PM 30.6939 -87.4653 32° Northeast 116 133 5,500  Level Jacksonville Center
07:28PM 30.7217 -87.4450 32° Northeast 117 135 5,500  Level Jacksonville Center
07:29PM 30.7536 -87.4272 26° Northeast 117 135 5,500  Level Jacksonville Center
07:30PM 30.7811 -87.4139 23° Northeast 117 135 5,500  Level Jacksonville Center
07:31PM 30.8111 -87.3936 30° Northeast 117 135 5,500  Level Jacksonville Center
07:32PM 30.8408 -87.3781 24° Northeast 116 133 5,600  Climbing Jacksonville Center
07:33PM 30.8686 -87.3600 29° Northeast 117 135 5,500 -60 Descending Jacksonville Center
07:34PM 30.9028 -87.3447 21° North 116 133 5,500  Level Jacksonville Center
07:35PM 30.9344 -87.3342 16° North 116 133 5,500  Level Jacksonville Center
07:36PM 30.9578 -87.3183 30° Northeast 115 132 5,500  Level Jacksonville Center
07:37PM 30.9664 -87.3161 12° North 115 132 5,500  Level Jacksonville Center
07:37PM 30.9872 -87.3100 14° North 127 146 5,500 60 Level Jacksonville Center
07:38PM 31.0169 -87.3017 14° North 127 146 5,600  Climbing Jacksonville Center
07:39PM 31.0464 -87.2908 17° North 122 140 5,600  Level Jacksonville Center
07:40PM 31.0781 -87.2828 12° North 111 128 5,600  Level Jacksonville Center
07:41PM 31.1078 -87.2672 24° Northeast 106 122 5,600  Level Jacksonville Center
07:42PM 31.1375 -87.2514 25° Northeast 106 122 5,600  Level Jacksonville Center
07:43PM 31.1653 -87.2358 26° Northeast 111 128 5,600  Level Jacksonville Center
07:44PM 31.1972 -87.2203 23° Northeast 111 128 5,600  Level Jacksonville Center
07:45PM 31.2247 -87.2069 23° Northeast 111 128 5,600 -60 Level Jacksonville Center
07:46PM 31.2564 -87.1914 23° Northeast 111 128 5,500 -60 Descending Jacksonville Center
07:48PM 31.3106 -87.1619 25° Northeast 116 133 5,500  Level Atlanta Center
07:49PM 31.3422 -87.1533 13° North 116 133 5,500  Level Atlanta Center
07:50PM 31.3736 -87.1469 10° North 111 128 5,500  Level Atlanta Center
07:51PM 31.4050 -87.1408 North 111 128 5,500 -60 Level Atlanta Center
07:52PM 31.4367 -87.1347 North 106 122 5,400 -120 Descending Atlanta Center
07:53PM 31.4681 -87.1258 14° North 106 122 5,300 -60 Descending Atlanta Center
07:54PM 31.4994 -87.1197 North 106 122 5,300  Level Atlanta Center
07:55PM 31.5311 -87.1086 17° North 106 122 5,300  Level Atlanta Center
07:56PM 31.5647 -87.1025 North 111 128 5,300  Level Atlanta Center
07:57PM 31.6003 -87.0964 North 116 133 5,300  Level Atlanta Center
07:58PM 31.6317 -87.0900 10° North 116 133 5,300  Level Atlanta Center
07:59PM 31.6633 -87.0839 North 116 133 5,300  Level Atlanta Center
08:00PM 31.6969 -87.0728 16° North 116 133 5,400  Climbing Atlanta Center
08:01PM 31.7306 -87.0642 12° North 116 133 5,400  Level Atlanta Center
08:02PM 31.7603 -87.0456 28° Northeast 116 133 5,400  Level Atlanta Center
08:03PM 31.7897 -87.0269 28° Northeast 116 133 5,500  Climbing Atlanta Center
08:04PM 31.8197 -87.0036 33° Northeast 121 139 5,500  Level Atlanta Center
08:05PM 31.8453 -86.9822 35° Northeast 121 139 5,500  Level Atlanta Center
08:06PM 31.8708 -86.9564 41° Northeast 116 133 5,500 -60 Level Atlanta Center
08:07PM 31.9025 -86.9353 30° Northeast 116 133 5,400 -120 Descending Atlanta Center
08:08PM 31.9303 -86.9167 30° Northeast 121 139 5,300 -60 Descending Atlanta Center
08:09PM 31.9619 -86.8981 27° Northeast 121 139 5,300 -60 Level Atlanta Center
08:10PM 31.9936 -86.8794 26° Northeast 121 139 5,200 -60 Descending Atlanta Center
08:11PM 32.0253 -86.8608 26° Northeast 121 139 5,200  Level Atlanta Center
08:12PM 32.0550 -86.8447 25° Northeast 121 139 5,200  Level Atlanta Center
08:13PM 32.0844 -86.8286 25° Northeast 116 133 5,200  Level Atlanta Center
08:39PM 32.9033 -86.3992 20° North 123 142 5,500  Climbing Atlanta Center
08:40PM 33.2613 -86.3932 20° North  Level FlightAware Approximate
08:41PM 33.3050 -86.3740 20° North  Level FlightAware Approximate
08:41PM 32.9456 -86.3731 27° Northeast 126 145 5,500  Level Atlanta Center
08:41PM 32.9728 -86.3639 16° North 126 145 5,500  Level Atlanta Center
08:42PM 33.3486 -86.3549 20° North  Level FlightAware Approximate
08:42PM 33.0003 -86.3572 11° North 126 145 5,500  Level Atlanta Center
08:43PM 33.3922 -86.3357 20° North  Level FlightAware Approximate
08:43PM 33.0339 -86.3433 19° North 125 144 5,500  Level Atlanta Center
08:44PM 33.4358 -86.3166 20° North  Level FlightAware Approximate
08:44PM 33.0675 -86.3242 26° Northeast 125 144 5,500  Level Atlanta Center
08:45PM 33.1056 -86.2981 30° Northeast 127 146 5,500 -60 Level Atlanta Center
08:46PM 33.1353 -86.2814 25° Northeast 127 146 5,400 -60 Descending Atlanta Center
08:47PM 33.1667 -86.2622 27° Northeast 125 144 5,400  Level Atlanta Center
08:48PM 33.1983 -86.2433 27° Northeast 125 144 5,400  Level Atlanta Center
08:49PM 33.2300 -86.2292 21° North 127 146 5,400  Level Atlanta Center
08:50PM 33.2639 -86.2078 28° Northeast 125 144 5,400 -60 Level Atlanta Center
08:51PM 33.2931 -86.1983 15° North 127 146 5,300 -60 Descending Atlanta Center
08:52PM 33.3267 -86.1869 16° North 127 146 5,300 -60 Level Atlanta Center
08:53PM 33.3625 -86.1728 18° North 125 144 5,200 -60 Descending Atlanta Center
08:55PM 33.4067 -86.1539 20° North 126 145 5,200  Level Atlanta Center
08:56PM 33.4361 -86.1372 25° Northeast 127 146 5,200 -60 Level Atlanta Center
08:56PM 33.4633 -86.1306 12° North 129 148 5,100 -60 Descending Atlanta Center
08:57PM 33.4969 -86.1164 19° North 129 148 5,100 -60 Level Atlanta Center
08:58PM 33.5306 -86.1072 13° North 127 146 5,000 -120 Descending Atlanta Center
09:00PM 33.5795 -86.1355 334° Northwest  Level FlightAware Approximate
09:07PM 33.9234 -86.0949 12° North  Level Estimated
09:08PM 33.9667 -86.0833 12° North  Level FlightAware Approximate
09:09PM 33.9726 -86.0891 321° Northwest  Level Estimated
09:10PM 33.9726 -86.0891 North  Level Estimated
09:11PM 33.9726 -86.0891 North  Level Estimated
09:12PM 33.9726 -86.0891 North  Level Estimated
09:13PM 33.9726 -86.0891 North  Level Estimated
09:14PM 33.9726 -86.0891 North  Level Estimated
09:15PM 33.9726 -86.0891 North  Level Estimated
09:16PM 33.9726 -86.0891 North  Level Estimated
09:17PM 33.9726 -86.0891 North  Level Estimated
09:18PM 33.9726 -86.0891 North  Level Estimated
09:19PM 33.9726 -86.0891 North  Level Estimated
09:20PM 33.9726 -86.0891 North  Level Estimated
09:21PM 33.9726 -86.0891 North  Level Estimated
09:22PM 33.9726 -86.0891 North  Level Estimated
09:23PM 33.9726 -86.0891 North  Level Estimated
09:24PM 33.9726 -86.0891 North  Level Estimated
09:25PM 33.9726 -86.0891 North  Level Estimated
09:26PM 33.9726 -86.0891 North  Level Estimated
09:27PM 33.9726 -86.0891 North  Level Estimated